Columbus Municipal Airport Columbus US
ICAO: KOLU
IATA: OLU
Category: Medium
Scheduled Services: No

Elevation: 1447 ft
TransAlt. 18000 ft.

Airport Communications:
AWOS 3:125.525
MINNEAPOLIS CNTR:128.75
CTAF/UNICOM:123.05
RDO:122.2

KOLU Zoom In..

If you have problems with the map follow the link
https://www.worldairports.se/pages/airport.php?
ICAO=KOLU

Runways:

(A) RW 02 length 4135 ft width 150 ft
LOC 109.10 / hdg 22

(B) RW 14 length 6801 ft width 100 ft
LOC 109.10 / hdg 142

(C) RW 20 length 4135 ft width 150 ft
LOC 109.10 / hdg 202

(D) RW 32 length 6801 ft width 100 ft
LOC 109.10 / hdg 322

Location; KOLU
Day. 20 / Time. 08.56 Zulu
* Altimeter: 30.62
* Temperature: -15° c. -5°f.
* Wind from: 350° Speed 04 kn.
Dewpoint: -19° c.
Visibility: 10 Statute Miles.
Clouds: Clear (automated report).

KOLU 200856Z AUTO 35004KT 10SM CLR M15/M19 A3062 RMK AO2 SLP405 T11501194 55001 FZRANO


Wind From 350°
Speed 04 kn.

 
 
jpsmedia worldairports.se 2020   terms of use